KMGR

Moultrie Municipal Airport

Moultrie, Georgia, USA
METAR KMGR 252215Z AUTO 18004KT 7SM -RA SCT025 BKN036 OVC080 25/22 A2996 RMK AO2 LTG DSNT ALQS
Observed Flight Rules
May-25 @ 22:15 UTC (27 minutes ago) Visual Flight Rules
Wind Visibility Clouds Conditions
180° at 4 knots 7 miles
  • Scattered at 2,500' AGL
  • Broken at 3,600' AGL
  • Overcast at 8,000' AGL
  • Light Rain
Temperatures Readings
Current 25°C / 77°F
Dewpoint 22°C / 72°F
Humidity 83%
Altimeter 29.96" Hg
Pressure 1015 hPa
Elevation 90
METAR KMGR 252215Z AUTO 18004KT 7SM -RA SCT025 BKN036 OVC080 25/22 A2996 RMK AO2 LTG DSNT ALQS
Observed Flight Rules
May-25 @ 22:15 UTC
(27 minutes ago)
VFR
Wind Visibility
180° at 4 knots 7 miles
Clouds
  • Scattered at 2,500' AGL
  • Broken at 3,600' AGL
  • Overcast at 8,000' AGL
Conditions
  • Light Rain
Temperature Dewpoint
25°C / 77°F 22°C / 72°F
Humidity Altimeter Pressure
83% 29.96" Hg 1015 hPa